sensor_id;sensor_type;location;lat;lon;timestamp;temperature;humidity
19522;DHT22;9905;52.126;5.596;2022-11-04T00:01:22;11.50;99.90
19522;DHT22;9905;52.126;5.596;2022-11-04T00:03:50;11.50;99.90
19522;DHT22;9905;52.126;5.596;2022-11-04T00:06:19;11.50;99.90
19522;DHT22;9905;52.126;5.596;2022-11-04T00:08:48;11.50;99.90
19522;DHT22;9905;52.126;5.596;2022-11-04T00:11:15;11.50;99.90
19522;DHT22;9905;52.126;5.596;2022-11-04T00:13:59;11.50;99.90
19522;DHT22;9905;52.126;5.596;2022-11-04T00:16:26;11.50;99.90
19522;DHT22;9905;52.126;5.596;2022-11-04T00:19:11;11.50;99.90
19522;DHT22;9905;52.126;5.596;2022-11-04T00:21:39;11.50;99.90
19522;DHT22;9905;52.126;5.596;2022-11-04T00:24:23;11.40;99.90
19522;DHT22;9905;52.126;5.596;2022-11-04T00:27:10;11.50;99.90
19522;DHT22;9905;52.126;5.596;2022-11-04T00:29:55;11.50;99.90
19522;DHT22;9905;52.126;5.596;2022-11-04T00:32:22;11.50;99.90
19522;DHT22;9905;52.126;5.596;2022-11-04T00:35:07;11.50;99.90
19522;DHT22;9905;52.126;5.596;2022-11-04T00:37:37;11.50;99.90
19522;DHT22;9905;52.126;5.596;2022-11-04T00:40:05;11.40;99.90
19522;DHT22;9905;52.126;5.596;2022-11-04T00:42:31;11.50;99.90
19522;DHT22;9905;52.126;5.596;2022-11-04T00:44:58;11.40;99.90
19522;DHT22;9905;52.126;5.596;2022-11-04T00:47:25;11.40;99.90
19522;DHT22;9905;52.126;5.596;2022-11-04T00:49:52;11.40;99.90
19522;DHT22;9905;52.126;5.596;2022-11-04T00:52:19;11.40;99.90
19522;DHT22;9905;52.126;5.596;2022-11-04T00:54:47;11.40;99.90
19522;DHT22;9905;52.126;5.596;2022-11-04T00:57:14;11.30;99.90
19522;DHT22;9905;52.126;5.596;2022-11-04T00:59:41;11.40;99.90
19522;DHT22;9905;52.126;5.596;2022-11-04T01:02:10;11.30;99.90
19522;DHT22;9905;52.126;5.596;2022-11-04T01:04:37;11.30;99.90
19522;DHT22;9905;52.126;5.596;2022-11-04T01:07:04;11.30;99.90
19522;DHT22;9905;52.126;5.596;2022-11-04T01:09:31;11.30;99.90
19522;DHT22;9905;52.126;5.596;2022-11-04T01:11:59;11.20;99.90
19522;DHT22;9905;52.126;5.596;2022-11-04T01:14:26;11.20;99.90
19522;DHT22;9905;52.126;5.596;2022-11-04T01:16:53;11.10;99.90
19522;DHT22;9905;52.126;5.596;2022-11-04T01:19:19;11.10;99.90
19522;DHT22;9905;52.126;5.596;2022-11-04T01:21:49;11.00;99.90
19522;DHT22;9905;52.126;5.596;2022-11-04T01:24:17;11.00;99.90
19522;DHT22;9905;52.126;5.596;2022-11-04T01:26:44;10.90;99.90
19522;DHT22;9905;52.126;5.596;2022-11-04T01:29:12;10.90;99.90
19522;DHT22;9905;52.126;5.596;2022-11-04T01:31:38;10.90;99.90
19522;DHT22;9905;52.126;5.596;2022-11-04T01:34:05;11.00;99.90
19522;DHT22;9905;52.126;5.596;2022-11-04T01:36:32;10.90;99.90
19522;DHT22;9905;52.126;5.596;2022-11-04T01:38:59;10.90;99.90
19522;DHT22;9905;52.126;5.596;2022-11-04T01:41:28;11.00;99.90
19522;DHT22;9905;52.126;5.596;2022-11-04T01:43:56;10.90;99.90
19522;DHT22;9905;52.126;5.596;2022-11-04T01:46:29;10.80;99.90
19522;DHT22;9905;52.126;5.596;2022-11-04T01:49:02;10.80;99.90
19522;DHT22;9905;52.126;5.596;2022-11-04T01:51:32;10.80;99.90
19522;DHT22;9905;52.126;5.596;2022-11-04T01:54:01;10.80;99.90
19522;DHT22;9905;52.126;5.596;2022-11-04T01:56:30;10.80;99.90
19522;DHT22;9905;52.126;5.596;2022-11-04T01:59:01;10.70;99.90
19522;DHT22;9905;52.126;5.596;2022-11-04T02:01:31;10.70;99.90
19522;DHT22;9905;52.126;5.596;2022-11-04T02:03:59;10.70;99.90
19522;DHT22;9905;52.126;5.596;2022-11-04T02:06:47;10.60;99.90
19522;DHT22;9905;52.126;5.596;2022-11-04T02:09:16;10.70;99.90
19522;DHT22;9905;52.126;5.596;2022-11-04T02:11:43;10.60;99.90
19522;DHT22;9905;52.126;5.596;2022-11-04T02:14:27;10.60;99.90
19522;DHT22;9905;52.126;5.596;2022-11-04T02:17:00;10.60;99.90
19522;DHT22;9905;52.126;5.596;2022-11-04T02:19:47;10.60;99.90
19522;DHT22;9905;52.126;5.596;2022-11-04T02:23:12;10.60;99.90
19522;DHT22;9905;52.126;5.596;2022-11-04T02:26:04;10.50;99.90
19522;DHT22;9905;52.126;5.596;2022-11-04T02:31:28;10.40;99.90
19522;DHT22;9905;52.126;5.596;2022-11-04T02:34:01;10.40;99.90
19522;DHT22;9905;52.126;5.596;2022-11-04T02:36:34;10.40;99.90
19522;DHT22;9905;52.126;5.596;2022-11-04T02:39:08;10.40;99.90
19522;DHT22;9905;52.126;5.596;2022-11-04T02:41:44;10.30;99.90
19522;DHT22;9905;52.126;5.596;2022-11-04T02:44:18;10.30;99.90
19522;DHT22;9905;52.126;5.596;2022-11-04T02:46:50;10.30;99.90
19522;DHT22;9905;52.126;5.596;2022-11-04T02:49:22;10.30;99.90
19522;DHT22;9905;52.126;5.596;2022-11-04T02:51:56;10.20;99.90
19522;DHT22;9905;52.126;5.596;2022-11-04T02:54:28;10.20;99.90
19522;DHT22;9905;52.126;5.596;2022-11-04T02:56:59;10.30;99.90
19522;DHT22;9905;52.126;5.596;2022-11-04T02:59:30;10.20;99.90
19522;DHT22;9905;52.126;5.596;2022-11-04T03:02:00;10.20;99.90
19522;DHT22;9905;52.126;5.596;2022-11-04T03:04:31;10.20;99.90
19522;DHT22;9905;52.126;5.596;2022-11-04T03:07:01;10.20;99.90
19522;DHT22;9905;52.126;5.596;2022-11-04T03:09:30;10.20;99.90
19522;DHT22;9905;52.126;5.596;2022-11-04T03:12:02;10.20;99.90
19522;DHT22;9905;52.126;5.596;2022-11-04T03:14:33;10.20;99.90
19522;DHT22;9905;52.126;5.596;2022-11-04T03:17:05;10.20;99.90
19522;DHT22;9905;52.126;5.596;2022-11-04T03:19:37;10.20;99.90
19522;DHT22;9905;52.126;5.596;2022-11-04T03:22:09;10.20;99.90
19522;DHT22;9905;52.126;5.596;2022-11-04T03:24:36;10.20;99.90
19522;DHT22;9905;52.126;5.596;2022-11-04T03:27:08;10.20;99.90
19522;DHT22;9905;52.126;5.596;2022-11-04T03:29:45;10.20;99.90
19522;DHT22;9905;52.126;5.596;2022-11-04T03:32:21;10.20;99.90
19522;DHT22;9905;52.126;5.596;2022-11-04T03:34:50;10.20;99.90
19522;DHT22;9905;52.126;5.596;2022-11-04T03:37:17;10.20;99.90
19522;DHT22;9905;52.126;5.596;2022-11-04T03:39:44;10.20;99.90
19522;DHT22;9905;52.126;5.596;2022-11-04T03:42:12;10.10;99.90
19522;DHT22;9905;52.126;5.596;2022-11-04T03:44:47;10.10;99.90
19522;DHT22;9905;52.126;5.596;2022-11-04T03:47:16;10.10;99.90
19522;DHT22;9905;52.126;5.596;2022-11-04T03:49:43;10.00;99.90
19522;DHT22;9905;52.126;5.596;2022-11-04T03:52:11;10.00;99.90
19522;DHT22;9905;52.126;5.596;2022-11-04T03:54:38;10.00;99.90
19522;DHT22;9905;52.126;5.596;2022-11-04T03:57:17;9.90;99.90
19522;DHT22;9905;52.126;5.596;2022-11-04T04:00:06;9.80;99.90
19522;DHT22;9905;52.126;5.596;2022-11-04T04:02:43;9.80;99.90
19522;DHT22;9905;52.126;5.596;2022-11-04T04:05:18;9.80;99.90
19522;DHT22;9905;52.126;5.596;2022-11-04T04:07:50;9.80;99.90
19522;DHT22;9905;52.126;5.596;2022-11-04T04:10:22;9.80;99.90
19522;DHT22;9905;52.126;5.596;2022-11-04T04:13:20;9.80;99.90
19522;DHT22;9905;52.126;5.596;2022-11-04T04:15:53;9.80;99.90
19522;DHT22;9905;52.126;5.596;2022-11-04T04:18:28;9.80;99.90
19522;DHT22;9905;52.126;5.596;2022-11-04T04:20:58;9.70;99.90
19522;DHT22;9905;52.126;5.596;2022-11-04T04:23:28;9.70;99.90
19522;DHT22;9905;52.126;5.596;2022-11-04T04:26:14;9.70;99.90
19522;DHT22;9905;52.126;5.596;2022-11-04T04:29:00;9.60;99.90
19522;DHT22;9905;52.126;5.596;2022-11-04T04:31:30;9.60;99.90
19522;DHT22;9905;52.126;5.596;2022-11-04T04:34:18;9.70;99.90
19522;DHT22;9905;52.126;5.596;2022-11-04T04:36:48;9.70;99.90
19522;DHT22;9905;52.126;5.596;2022-11-04T04:39:21;9.70;99.90
19522;DHT22;9905;52.126;5.596;2022-11-04T04:42:06;9.70;99.90
19522;DHT22;9905;52.126;5.596;2022-11-04T04:44:51;9.70;99.90
19522;DHT22;9905;52.126;5.596;2022-11-04T04:47:43;9.70;99.90
19522;DHT22;9905;52.126;5.596;2022-11-04T04:50:14;9.70;99.90
19522;DHT22;9905;52.126;5.596;2022-11-04T04:52:43;9.70;99.90
19522;DHT22;9905;52.126;5.596;2022-11-04T04:55:11;9.60;99.90
19522;DHT22;9905;52.126;5.596;2022-11-04T04:57:38;9.70;99.90
19522;DHT22;9905;52.126;5.596;2022-11-04T05:00:06;9.60;99.90
19522;DHT22;9905;52.126;5.596;2022-11-04T05:02:33;9.60;99.90
19522;DHT22;9905;52.126;5.596;2022-11-04T05:05:00;9.60;99.90
19522;DHT22;9905;52.126;5.596;2022-11-04T05:07:28;9.60;99.90
19522;DHT22;9905;52.126;5.596;2022-11-04T05:09:55;9.50;99.90
19522;DHT22;9905;52.126;5.596;2022-11-04T05:12:22;9.50;99.90
19522;DHT22;9905;52.126;5.596;2022-11-04T05:14:49;9.50;99.90
19522;DHT22;9905;52.126;5.596;2022-11-04T05:17:16;9.50;99.90
19522;DHT22;9905;52.126;5.596;2022-11-04T05:19:42;9.50;99.90
19522;DHT22;9905;52.126;5.596;2022-11-04T05:22:09;9.50;99.90
19522;DHT22;9905;52.126;5.596;2022-11-04T05:24:37;9.50;99.90
19522;DHT22;9905;52.126;5.596;2022-11-04T05:27:04;9.40;99.90
19522;DHT22;9905;52.126;5.596;2022-11-04T05:29:31;9.40;99.90
19522;DHT22;9905;52.126;5.596;2022-11-04T05:31:57;9.30;99.90
19522;DHT22;9905;52.126;5.596;2022-11-04T05:34:24;9.30;99.90
19522;DHT22;9905;52.126;5.596;2022-11-04T05:36:51;9.30;99.90
19522;DHT22;9905;52.126;5.596;2022-11-04T05:39:17;9.20;99.90
19522;DHT22;9905;52.126;5.596;2022-11-04T05:41:46;9.20;99.90
19522;DHT22;9905;52.126;5.596;2022-11-04T05:44:15;9.10;99.90
19522;DHT22;9905;52.126;5.596;2022-11-04T05:46:42;9.10;99.90
19522;DHT22;9905;52.126;5.596;2022-11-04T05:49:09;9.10;99.90
19522;DHT22;9905;52.126;5.596;2022-11-04T05:51:36;9.00;99.90
19522;DHT22;9905;52.126;5.596;2022-11-04T05:54:03;9.00;99.90
19522;DHT22;9905;52.126;5.596;2022-11-04T05:56:30;8.90;99.90
19522;DHT22;9905;52.126;5.596;2022-11-04T05:58:58;8.90;99.90
19522;DHT22;9905;52.126;5.596;2022-11-04T06:01:30;8.90;99.90
19522;DHT22;9905;52.126;5.596;2022-11-04T06:03:58;8.80;99.90
19522;DHT22;9905;52.126;5.596;2022-11-04T06:06:27;8.90;99.90
19522;DHT22;9905;52.126;5.596;2022-11-04T06:08:55;8.90;99.90
19522;DHT22;9905;52.126;5.596;2022-11-04T06:11:22;8.90;99.90
19522;DHT22;9905;52.126;5.596;2022-11-04T06:13:50;8.90;99.90
19522;DHT22;9905;52.126;5.596;2022-11-04T06:16:18;8.90;99.90
19522;DHT22;9905;52.126;5.596;2022-11-04T06:18:45;8.80;99.90
19522;DHT22;9905;52.126;5.596;2022-11-04T06:21:23;8.80;99.90
19522;DHT22;9905;52.126;5.596;2022-11-04T06:23:51;8.80;99.90
19522;DHT22;9905;52.126;5.596;2022-11-04T06:26:19;8.80;99.90
19522;DHT22;9905;52.126;5.596;2022-11-04T06:28:46;8.80;99.90
19522;DHT22;9905;52.126;5.596;2022-11-04T06:31:14;8.80;99.90
19522;DHT22;9905;52.126;5.596;2022-11-04T06:33:42;8.80;99.90
19522;DHT22;9905;52.126;5.596;2022-11-04T06:36:11;8.80;99.90
19522;DHT22;9905;52.126;5.596;2022-11-04T06:38:38;8.80;99.90
19522;DHT22;9905;52.126;5.596;2022-11-04T06:41:06;8.80;99.90
19522;DHT22;9905;52.126;5.596;2022-11-04T06:43:33;8.80;99.90
19522;DHT22;9905;52.126;5.596;2022-11-04T06:46:01;8.80;99.90
19522;DHT22;9905;52.126;5.596;2022-11-04T06:48:29;8.80;99.90
19522;DHT22;9905;52.126;5.596;2022-11-04T06:50:57;8.90;99.90
19522;DHT22;9905;52.126;5.596;2022-11-04T06:53:24;8.90;99.90
19522;DHT22;9905;52.126;5.596;2022-11-04T06:55:51;8.90;99.90
19522;DHT22;9905;52.126;5.596;2022-11-04T06:58:18;8.90;99.90
19522;DHT22;9905;52.126;5.596;2022-11-04T07:00:50;8.90;99.90
19522;DHT22;9905;52.126;5.596;2022-11-04T07:03:17;8.80;99.90
19522;DHT22;9905;52.126;5.596;2022-11-04T07:05:44;8.80;99.90
19522;DHT22;9905;52.126;5.596;2022-11-04T07:08:12;8.80;99.90
19522;DHT22;9905;52.126;5.596;2022-11-04T07:10:39;8.70;99.90
19522;DHT22;9905;52.126;5.596;2022-11-04T07:13:05;8.80;99.90
19522;DHT22;9905;52.126;5.596;2022-11-04T07:15:32;8.70;99.90
19522;DHT22;9905;52.126;5.596;2022-11-04T07:17:59;8.80;99.90
19522;DHT22;9905;52.126;5.596;2022-11-04T07:20:26;8.80;99.90
19522;DHT22;9905;52.126;5.596;2022-11-04T07:22:53;8.80;99.90
19522;DHT22;9905;52.126;5.596;2022-11-04T07:25:21;8.80;99.90
19522;DHT22;9905;52.126;5.596;2022-11-04T07:27:48;8.80;99.90
19522;DHT22;9905;52.126;5.596;2022-11-04T07:30:15;8.90;99.90
19522;DHT22;9905;52.126;5.596;2022-11-04T07:32:41;8.80;99.90
19522;DHT22;9905;52.126;5.596;2022-11-04T07:35:08;8.90;99.90
19522;DHT22;9905;52.126;5.596;2022-11-04T07:37:35;8.80;99.90
19522;DHT22;9905;52.126;5.596;2022-11-04T07:40:06;8.80;99.90
19522;DHT22;9905;52.126;5.596;2022-11-04T07:42:34;8.80;99.90
19522;DHT22;9905;52.126;5.596;2022-11-04T07:45:01;8.90;99.90
19522;DHT22;9905;52.126;5.596;2022-11-04T07:47:28;8.90;99.90
19522;DHT22;9905;52.126;5.596;2022-11-04T07:49:55;8.90;99.90
19522;DHT22;9905;52.126;5.596;2022-11-04T07:52:22;8.90;99.90
19522;DHT22;9905;52.126;5.596;2022-11-04T07:54:50;8.90;99.90
19522;DHT22;9905;52.126;5.596;2022-11-04T07:57:16;8.90;99.90
19522;DHT22;9905;52.126;5.596;2022-11-04T07:59:44;8.80;99.90
19522;DHT22;9905;52.126;5.596;2022-11-04T08:02:11;8.90;99.90
19522;DHT22;9905;52.126;5.596;2022-11-04T08:04:38;9.00;99.90
19522;DHT22;9905;52.126;5.596;2022-11-04T08:07:07;9.00;99.90
19522;DHT22;9905;52.126;5.596;2022-11-04T08:09:33;9.10;99.90
19522;DHT22;9905;52.126;5.596;2022-11-04T08:12:02;9.00;99.90
19522;DHT22;9905;52.126;5.596;2022-11-04T08:14:29;9.00;99.90
19522;DHT22;9905;52.126;5.596;2022-11-04T08:16:57;9.10;99.90
19522;DHT22;9905;52.126;5.596;2022-11-04T08:19:24;9.10;99.90
19522;DHT22;9905;52.126;5.596;2022-11-04T08:21:51;9.10;99.90
19522;DHT22;9905;52.126;5.596;2022-11-04T08:24:18;9.10;99.90
19522;DHT22;9905;52.126;5.596;2022-11-04T08:26:45;9.10;99.90
19522;DHT22;9905;52.126;5.596;2022-11-04T08:29:12;9.10;99.90
19522;DHT22;9905;52.126;5.596;2022-11-04T08:31:38;9.10;99.90
19522;DHT22;9905;52.126;5.596;2022-11-04T08:34:08;9.20;99.90
19522;DHT22;9905;52.126;5.596;2022-11-04T08:36:37;9.20;99.90
19522;DHT22;9905;52.126;5.596;2022-11-04T08:39:06;9.20;99.90
19522;DHT22;9905;52.126;5.596;2022-11-04T08:41:33;9.30;99.90
19522;DHT22;9905;52.126;5.596;2022-11-04T08:44:02;9.30;99.90
19522;DHT22;9905;52.126;5.596;2022-11-04T08:46:32;9.40;99.90
19522;DHT22;9905;52.126;5.596;2022-11-04T08:48:59;9.40;99.90
19522;DHT22;9905;52.126;5.596;2022-11-04T08:51:29;9.40;99.90
19522;DHT22;9905;52.126;5.596;2022-11-04T08:53:56;9.40;99.90
19522;DHT22;9905;52.126;5.596;2022-11-04T08:56:25;9.40;99.90
19522;DHT22;9905;52.126;5.596;2022-11-04T08:58:53;9.50;99.90
19522;DHT22;9905;52.126;5.596;2022-11-04T09:01:20;9.60;99.90
19522;DHT22;9905;52.126;5.596;2022-11-04T09:03:48;9.60;99.90
19522;DHT22;9905;52.126;5.596;2022-11-04T09:06:18;9.60;99.90
19522;DHT22;9905;52.126;5.596;2022-11-04T09:08:47;9.60;99.90
19522;DHT22;9905;52.126;5.596;2022-11-04T09:11:14;9.60;99.90
19522;DHT22;9905;52.126;5.596;2022-11-04T09:13:42;9.60;99.90
19522;DHT22;9905;52.126;5.596;2022-11-04T09:16:10;9.60;99.90
19522;DHT22;9905;52.126;5.596;2022-11-04T09:18:37;9.60;99.90
19522;DHT22;9905;52.126;5.596;2022-11-04T09:21:05;9.60;99.90
19522;DHT22;9905;52.126;5.596;2022-11-04T09:23:32;9.70;99.90
19522;DHT22;9905;52.126;5.596;2022-11-04T09:26:05;9.70;99.90
19522;DHT22;9905;52.126;5.596;2022-11-04T09:28:32;9.70;99.90
19522;DHT22;9905;52.126;5.596;2022-11-04T09:31:02;9.80;99.90
19522;DHT22;9905;52.126;5.596;2022-11-04T09:33:29;9.90;99.90
19522;DHT22;9905;52.126;5.596;2022-11-04T09:35:57;10.00;99.90
19522;DHT22;9905;52.126;5.596;2022-11-04T09:38:24;10.10;99.90
19522;DHT22;9905;52.126;5.596;2022-11-04T09:40:51;10.10;99.90
19522;DHT22;9905;52.126;5.596;2022-11-04T09:43:30;10.20;99.90
19522;DHT22;9905;52.126;5.596;2022-11-04T09:45:58;10.20;99.90
19522;DHT22;9905;52.126;5.596;2022-11-04T09:48:30;10.30;99.90
19522;DHT22;9905;52.126;5.596;2022-11-04T09:51:00;10.50;99.90
19522;DHT22;9905;52.126;5.596;2022-11-04T09:53:33;10.60;99.90
19522;DHT22;9905;52.126;5.596;2022-11-04T09:56:04;10.70;99.90
19522;DHT22;9905;52.126;5.596;2022-11-04T09:58:36;10.80;99.90
19522;DHT22;9905;52.126;5.596;2022-11-04T10:01:14;10.90;99.90
19522;DHT22;9905;52.126;5.596;2022-11-04T10:03:52;11.00;99.90
19522;DHT22;9905;52.126;5.596;2022-11-04T10:06:31;11.20;99.90
19522;DHT22;9905;52.126;5.596;2022-11-04T10:09:10;11.40;99.90
19522;DHT22;9905;52.126;5.596;2022-11-04T10:11:46;11.50;99.90
19522;DHT22;9905;52.126;5.596;2022-11-04T10:14:34;11.60;99.90
19522;DHT22;9905;52.126;5.596;2022-11-04T10:17:14;11.60;99.90
19522;DHT22;9905;52.126;5.596;2022-11-04T10:19:56;11.60;99.90
19522;DHT22;9905;52.126;5.596;2022-11-04T10:22:30;11.70;99.90
19522;DHT22;9905;52.126;5.596;2022-11-04T10:25:03;11.60;99.90
19522;DHT22;9905;52.126;5.596;2022-11-04T10:27:36;11.60;99.90
19522;DHT22;9905;52.126;5.596;2022-11-04T10:30:11;11.60;99.90
19522;DHT22;9905;52.126;5.596;2022-11-04T10:32:48;11.70;99.90
19522;DHT22;9905;52.126;5.596;2022-11-04T10:35:29;11.70;99.90
19522;DHT22;9905;52.126;5.596;2022-11-04T10:38:07;11.70;99.90
19522;DHT22;9905;52.126;5.596;2022-11-04T10:40:39;11.70;99.90
19522;DHT22;9905;52.126;5.596;2022-11-04T10:43:12;11.70;99.90
19522;DHT22;9905;52.126;5.596;2022-11-04T10:45:49;11.80;99.90
19522;DHT22;9905;52.126;5.596;2022-11-04T10:48:23;11.70;99.90
19522;DHT22;9905;52.126;5.596;2022-11-04T10:50:53;11.80;99.90
19522;DHT22;9905;52.126;5.596;2022-11-04T10:53:23;11.90;99.90
19522;DHT22;9905;52.126;5.596;2022-11-04T10:55:56;11.90;99.90
19522;DHT22;9905;52.126;5.596;2022-11-04T10:58:26;11.90;99.90
19522;DHT22;9905;52.126;5.596;2022-11-04T11:00:56;11.90;99.90
19522;DHT22;9905;52.126;5.596;2022-11-04T11:03:29;11.90;99.90
19522;DHT22;9905;52.126;5.596;2022-11-04T11:06:26;12.00;99.90
19522;DHT22;9905;52.126;5.596;2022-11-04T11:08:55;12.10;99.90
19522;DHT22;9905;52.126;5.596;2022-11-04T11:11:36;12.10;99.90
19522;DHT22;9905;52.126;5.596;2022-11-04T11:14:03;12.10;99.90
19522;DHT22;9905;52.126;5.596;2022-11-04T11:16:31;12.10;99.90
19522;DHT22;9905;52.126;5.596;2022-11-04T11:19:11;12.20;99.90
19522;DHT22;9905;52.126;5.596;2022-11-04T11:21:41;12.20;99.90
19522;DHT22;9905;52.126;5.596;2022-11-04T11:24:13;12.30;99.90
19522;DHT22;9905;52.126;5.596;2022-11-04T11:26:41;12.20;99.90
19522;DHT22;9905;52.126;5.596;2022-11-04T11:29:17;12.20;99.90
19522;DHT22;9905;52.126;5.596;2022-11-04T11:31:48;12.20;99.90
19522;DHT22;9905;52.126;5.596;2022-11-04T11:34:19;12.20;99.90
19522;DHT22;9905;52.126;5.596;2022-11-04T11:36:49;12.30;99.90
19522;DHT22;9905;52.126;5.596;2022-11-04T11:39:18;12.40;99.90
19522;DHT22;9905;52.126;5.596;2022-11-04T11:41:56;12.40;99.90
19522;DHT22;9905;52.126;5.596;2022-11-04T11:44:26;12.40;99.90
19522;DHT22;9905;52.126;5.596;2022-11-04T11:46:59;12.40;99.90
19522;DHT22;9905;52.126;5.596;2022-11-04T11:49:28;12.50;99.90
19522;DHT22;9905;52.126;5.596;2022-11-04T11:51:55;12.50;99.90
19522;DHT22;9905;52.126;5.596;2022-11-04T11:54:42;12.50;99.90
19522;DHT22;9905;52.126;5.596;2022-11-04T11:57:21;12.50;99.90
19522;DHT22;9905;52.126;5.596;2022-11-04T11:59:53;12.60;99.90
19522;DHT22;9905;52.126;5.596;2022-11-04T12:02:30;12.50;99.90
19522;DHT22;9905;52.126;5.596;2022-11-04T12:04:59;12.50;99.90
19522;DHT22;9905;52.126;5.596;2022-11-04T12:07:32;12.50;99.90
19522;DHT22;9905;52.126;5.596;2022-11-04T12:10:11;12.50;99.90
19522;DHT22;9905;52.126;5.596;2022-11-04T12:13:01;12.50;99.90
19522;DHT22;9905;52.126;5.596;2022-11-04T12:15:47;12.60;99.90
19522;DHT22;9905;52.126;5.596;2022-11-04T12:18:39;12.60;99.90
19522;DHT22;9905;52.126;5.596;2022-11-04T12:21:12;12.70;99.90
19522;DHT22;9905;52.126;5.596;2022-11-04T12:23:45;12.70;99.90
19522;DHT22;9905;52.126;5.596;2022-11-04T12:26:22;12.60;99.90
19522;DHT22;9905;52.126;5.596;2022-11-04T12:29:01;12.70;99.90
19522;DHT22;9905;52.126;5.596;2022-11-04T12:31:35;12.70;99.90
19522;DHT22;9905;52.126;5.596;2022-11-04T12:34:13;12.80;99.90
19522;DHT22;9905;52.126;5.596;2022-11-04T12:36:58;12.80;99.90
19522;DHT22;9905;52.126;5.596;2022-11-04T12:39:41;12.80;99.90
19522;DHT22;9905;52.126;5.596;2022-11-04T12:42:13;12.80;99.90
19522;DHT22;9905;52.126;5.596;2022-11-04T12:44:50;12.80;99.90
19522;DHT22;9905;52.126;5.596;2022-11-04T12:47:27;12.90;99.90
19522;DHT22;9905;52.126;5.596;2022-11-04T12:50:31;12.90;99.90
19522;DHT22;9905;52.126;5.596;2022-11-04T12:53:18;12.90;99.90
19522;DHT22;9905;52.126;5.596;2022-11-04T12:55:54;12.90;99.90
19522;DHT22;9905;52.126;5.596;2022-11-04T12:58:36;12.90;99.90
19522;DHT22;9905;52.126;5.596;2022-11-04T13:01:07;12.90;99.90
19522;DHT22;9905;52.126;5.596;2022-11-04T13:03:41;12.90;99.90
19522;DHT22;9905;52.126;5.596;2022-11-04T13:06:15;12.90;99.90
19522;DHT22;9905;52.126;5.596;2022-11-04T13:08:45;12.90;99.90
19522;DHT22;9905;52.126;5.596;2022-11-04T13:11:17;12.90;99.90
19522;DHT22;9905;52.126;5.596;2022-11-04T13:13:54;12.90;99.90
19522;DHT22;9905;52.126;5.596;2022-11-04T13:16:21;12.90;99.90
19522;DHT22;9905;52.126;5.596;2022-11-04T13:18:49;12.90;99.90
19522;DHT22;9905;52.126;5.596;2022-11-04T13:21:20;12.80;99.90
19522;DHT22;9905;52.126;5.596;2022-11-04T13:23:51;12.80;99.90
19522;DHT22;9905;52.126;5.596;2022-11-04T13:26:21;12.90;99.90
19522;DHT22;9905;52.126;5.596;2022-11-04T13:28:55;12.90;99.90
19522;DHT22;9905;52.126;5.596;2022-11-04T13:31:30;12.90;99.90
19522;DHT22;9905;52.126;5.596;2022-11-04T13:34:04;13.00;99.90
19522;DHT22;9905;52.126;5.596;2022-11-04T13:36:40;13.00;99.90
19522;DHT22;9905;52.126;5.596;2022-11-04T13:39:14;13.00;99.90
19522;DHT22;9905;52.126;5.596;2022-11-04T13:42:10;13.00;99.90
19522;DHT22;9905;52.126;5.596;2022-11-04T13:44:42;13.00;99.90
19522;DHT22;9905;52.126;5.596;2022-11-04T13:47:17;13.00;99.90
19522;DHT22;9905;52.126;5.596;2022-11-04T13:49:48;13.00;99.90
19522;DHT22;9905;52.126;5.596;2022-11-04T13:52:17;13.10;99.90
19522;DHT22;9905;52.126;5.596;2022-11-04T13:54:45;13.00;99.90
19522;DHT22;9905;52.126;5.596;2022-11-04T13:57:19;12.70;99.90
19522;DHT22;9905;52.126;5.596;2022-11-04T14:00:06;12.30;99.90
19522;DHT22;9905;52.126;5.596;2022-11-04T14:02:39;12.00;99.90
19522;DHT22;9905;52.126;5.596;2022-11-04T14:08:23;11.70;99.90
19522;DHT22;9905;52.126;5.596;2022-11-04T14:11:14;11.60;99.90
19522;DHT22;9905;52.126;5.596;2022-11-04T14:13:45;11.60;99.90
19522;DHT22;9905;52.126;5.596;2022-11-04T14:16:41;11.60;99.90
19522;DHT22;9905;52.126;5.596;2022-11-04T14:22:33;11.60;99.90
19522;DHT22;9905;52.126;5.596;2022-11-04T14:25:17;11.60;99.90
19522;DHT22;9905;52.126;5.596;2022-11-04T14:27:46;11.60;99.90
19522;DHT22;9905;52.126;5.596;2022-11-04T14:30:27;11.60;99.90
19522;DHT22;9905;52.126;5.596;2022-11-04T14:32:59;11.60;99.90
19522;DHT22;9905;52.126;5.596;2022-11-04T14:35:27;11.50;99.90
19522;DHT22;9905;52.126;5.596;2022-11-04T14:37:55;11.50;99.90
19522;DHT22;9905;52.126;5.596;2022-11-04T14:40:25;11.60;99.90
19522;DHT22;9905;52.126;5.596;2022-11-04T14:42:54;11.60;99.90
19522;DHT22;9905;52.126;5.596;2022-11-04T14:45:22;11.60;99.90
19522;DHT22;9905;52.126;5.596;2022-11-04T14:47:53;11.60;99.90
19522;DHT22;9905;52.126;5.596;2022-11-04T14:50:24;11.60;99.90
19522;DHT22;9905;52.126;5.596;2022-11-04T14:52:54;11.60;99.90
19522;DHT22;9905;52.126;5.596;2022-11-04T14:55:23;11.70;99.90
19522;DHT22;9905;52.126;5.596;2022-11-04T14:57:52;11.60;99.90
19522;DHT22;9905;52.126;5.596;2022-11-04T15:00:31;11.60;99.90
19522;DHT22;9905;52.126;5.596;2022-11-04T15:03:09;11.60;99.90
19522;DHT22;9905;52.126;5.596;2022-11-04T15:05:44;11.50;99.90
19522;DHT22;9905;52.126;5.596;2022-11-04T15:08:26;11.50;99.90
19522;DHT22;9905;52.126;5.596;2022-11-04T15:10:57;11.40;99.90
19522;DHT22;9905;52.126;5.596;2022-11-04T15:13:24;11.40;99.90
19522;DHT22;9905;52.126;5.596;2022-11-04T15:15:52;11.40;99.90
19522;DHT22;9905;52.126;5.596;2022-11-04T15:18:22;11.50;99.90
19522;DHT22;9905;52.126;5.596;2022-11-04T15:20:54;11.50;99.90
19522;DHT22;9905;52.126;5.596;2022-11-04T15:23:27;11.40;99.90
19522;DHT22;9905;52.126;5.596;2022-11-04T15:25:55;11.30;99.90
19522;DHT22;9905;52.126;5.596;2022-11-04T15:28:24;11.30;99.90
19522;DHT22;9905;52.126;5.596;2022-11-04T15:31:00;11.30;99.90
19522;DHT22;9905;52.126;5.596;2022-11-04T15:33:28;11.20;99.90
19522;DHT22;9905;52.126;5.596;2022-11-04T15:35:57;11.20;99.90
19522;DHT22;9905;52.126;5.596;2022-11-04T15:38:26;11.20;99.90
19522;DHT22;9905;52.126;5.596;2022-11-04T15:40:54;11.20;99.90
19522;DHT22;9905;52.126;5.596;2022-11-04T15:43:41;11.10;99.90
19522;DHT22;9905;52.126;5.596;2022-11-04T15:46:16;11.10;99.90
19522;DHT22;9905;52.126;5.596;2022-11-04T15:48:59;11.10;99.90
19522;DHT22;9905;52.126;5.596;2022-11-04T15:51:29;11.00;99.90
19522;DHT22;9905;52.126;5.596;2022-11-04T15:53:58;11.00;99.90
19522;DHT22;9905;52.126;5.596;2022-11-04T15:56:27;10.90;99.90
19522;DHT22;9905;52.126;5.596;2022-11-04T15:58:55;10.90;99.90
19522;DHT22;9905;52.126;5.596;2022-11-04T16:01:22;10.80;99.90
19522;DHT22;9905;52.126;5.596;2022-11-04T16:03:52;10.80;99.90
19522;DHT22;9905;52.126;5.596;2022-11-04T16:06:33;10.70;99.90
19522;DHT22;9905;52.126;5.596;2022-11-04T16:09:03;10.70;99.90
19522;DHT22;9905;52.126;5.596;2022-11-04T16:11:31;10.60;99.90
19522;DHT22;9905;52.126;5.596;2022-11-04T16:14:13;10.60;99.90
19522;DHT22;9905;52.126;5.596;2022-11-04T16:16:45;10.60;99.90
19522;DHT22;9905;52.126;5.596;2022-11-04T16:19:16;10.50;99.90
19522;DHT22;9905;52.126;5.596;2022-11-04T16:21:46;10.40;99.90
19522;DHT22;9905;52.126;5.596;2022-11-04T16:24:19;10.40;99.90
19522;DHT22;9905;52.126;5.596;2022-11-04T16:26:47;10.30;99.90
19522;DHT22;9905;52.126;5.596;2022-11-04T16:29:18;10.20;99.90
19522;DHT22;9905;52.126;5.596;2022-11-04T16:32:07;10.20;99.90